createdAt,value
2022-11-26T00:02:24.604Z,73.90
2022-11-26T00:04:54.745Z,81.20
2022-11-26T00:07:26.783Z,83.60
2022-11-26T00:09:56.836Z,80.70
2022-11-26T00:12:31.383Z,75.00
2022-11-26T00:15:02.586Z,73.10
2022-11-26T00:17:31.438Z,82.00
2022-11-26T00:20:00.120Z,78.30
2022-11-26T00:22:29.880Z,88.30
2022-11-26T00:24:58.637Z,82.60
2022-11-26T00:27:28.222Z,70.50
2022-11-26T00:29:57.042Z,82.00
2022-11-26T00:32:26.262Z,87.90
2022-11-26T00:34:55.315Z,79.00
2022-11-26T00:37:25.914Z,83.90
2022-11-26T00:39:55.663Z,89.30
2022-11-26T00:42:24.445Z,88.80
2022-11-26T00:44:53.158Z,89.80
2022-11-26T00:47:21.927Z,76.00
2022-11-26T00:49:50.620Z,87.60
2022-11-26T00:52:25.457Z,79.30
2022-11-26T00:54:54.341Z,86.70
2022-11-26T00:57:23.070Z,77.30
2022-11-26T00:59:51.871Z,77.30
2022-11-26T01:02:20.614Z,81.70
2022-11-26T01:04:49.515Z,77.70
2022-11-26T01:07:18.237Z,74.60
2022-11-26T01:09:47.746Z,80.70
2022-11-26T01:12:16.463Z,75.00
2022-11-26T01:14:45.316Z,77.00
2022-11-26T01:17:14.098Z,89.50
2022-11-26T01:19:42.832Z,84.90
2022-11-26T01:22:18.986Z,99.40
2022-11-26T01:24:48.440Z,76.90
2022-11-26T01:27:18.951Z,78.60
2022-11-26T01:29:47.937Z,75.40
2022-11-26T01:32:16.696Z,60.90
2022-11-26T01:34:45.452Z,66.20
2022-11-26T01:37:14.328Z,68.50
2022-11-26T01:39:43.047Z,60.10
2022-11-26T01:42:22.313Z,61.30
2022-11-26T01:44:51.069Z,73.40
2022-11-26T01:47:24.362Z,76.70
2022-11-26T01:50:12.032Z,69.00
2022-11-26T01:52:40.736Z,64.00
2022-11-26T01:55:14.648Z,68.20
2022-11-26T01:57:43.730Z,67.20
2022-11-26T02:00:12.857Z,70.50
2022-11-26T02:02:41.757Z,76.20
2022-11-26T02:05:24.450Z,70.90
2022-11-26T02:07:53.493Z,82.20
2022-11-26T02:10:22.357Z,94.10
2022-11-26T02:12:51.175Z,67.90
2022-11-26T02:15:19.993Z,60.10
2022-11-26T02:17:52.117Z,62.00
2022-11-26T02:20:26.973Z,67.50
2022-11-26T02:23:01.937Z,64.40
2022-11-26T02:25:36.865Z,64.20
2022-11-26T02:28:24.405Z,67.20
2022-11-26T02:31:05.665Z,64.00
2022-11-26T02:33:45.066Z,65.60
2022-11-26T02:36:25.204Z,69.30
2022-11-26T02:38:53.923Z,70.60
2022-11-26T02:41:22.660Z,84.70
2022-11-26T02:43:51.409Z,69.90
2022-11-26T02:46:20.721Z,65.00
2022-11-26T02:48:51.974Z,65.80
2022-11-26T02:51:23.219Z,61.40
2022-11-26T02:53:52.422Z,63.30
2022-11-26T02:56:26.485Z,64.80
2022-11-26T02:58:56.227Z,59.80
2022-11-26T03:01:52.308Z,71.00
2022-11-26T03:04:23.952Z,63.80
2022-11-26T03:06:53.668Z,71.60
2022-11-26T03:09:22.925Z,59.10
2022-11-26T03:11:51.739Z,56.80
2022-11-26T03:14:20.592Z,54.70
2022-11-26T03:16:49.504Z,55.70
2022-11-26T03:19:18.278Z,55.50
2022-11-26T03:21:46.995Z,55.40
2022-11-26T03:24:15.697Z,54.20
2022-11-26T03:26:44.489Z,61.80
2022-11-26T03:29:13.217Z,64.90
2022-11-26T03:31:41.993Z,77.70
2022-11-26T03:34:10.799Z,83.40
2022-11-26T03:36:39.585Z,61.80
2022-11-26T03:39:08.304Z,57.80
2022-11-26T03:41:37.127Z,59.60
2022-11-26T03:44:05.809Z,64.70
2022-11-26T03:46:34.533Z,65.80
2022-11-26T03:49:03.282Z,67.10
2022-11-26T03:51:32.343Z,67.20
2022-11-26T03:54:01.082Z,67.70
2022-11-26T03:56:29.830Z,69.30
2022-11-26T03:58:58.583Z,69.70
2022-11-26T04:01:27.391Z,68.40
2022-11-26T04:03:56.199Z,66.30
2022-11-26T04:06:25.431Z,59.60
2022-11-26T04:08:54.181Z,63.40
2022-11-26T04:11:22.996Z,61.60
2022-11-26T04:13:51.731Z,61.60
2022-11-26T04:16:20.935Z,65.20
2022-11-26T04:18:49.774Z,67.60
2022-11-26T04:21:18.565Z,74.30
2022-11-26T04:23:47.285Z,63.40
2022-11-26T04:26:15.992Z,72.80
2022-11-26T04:28:44.890Z,73.40
2022-11-26T04:31:13.890Z,84.20
2022-11-26T04:33:42.674Z,62.80
2022-11-26T04:36:11.452Z,65.50
2022-11-26T04:38:43.563Z,52.50
2022-11-26T04:41:12.339Z,60.80
2022-11-26T04:43:41.118Z,57.90
2022-11-26T04:46:09.869Z,59.20
2022-11-26T04:48:38.569Z,67.90
2022-11-26T04:51:07.426Z,60.50
2022-11-26T04:53:36.337Z,57.40
2022-11-26T04:56:05.103Z,64.20
2022-11-26T04:58:34.044Z,75.80
2022-11-26T05:01:02.805Z,77.90
2022-11-26T05:03:31.620Z,58.70
2022-11-26T05:06:00.411Z,61.60
2022-11-26T05:08:29.586Z,58.90
2022-11-26T05:10:59.534Z,59.90
2022-11-26T05:13:28.514Z,67.50
2022-11-26T05:15:57.257Z,56.60
2022-11-26T05:18:25.969Z,66.40
2022-11-26T05:20:54.633Z,62.70
2022-11-26T05:23:23.320Z,59.50
2022-11-26T05:25:52.199Z,69.00
2022-11-26T05:28:21.019Z,73.30
2022-11-26T05:30:49.825Z,85.80
2022-11-26T05:33:18.575Z,63.20
2022-11-26T05:35:47.276Z,56.70
2022-11-26T05:38:16.064Z,57.80
2022-11-26T05:40:44.787Z,58.20
2022-11-26T05:43:13.473Z,59.20
2022-11-26T05:45:42.303Z,64.30
2022-11-26T05:48:11.500Z,64.90
2022-11-26T05:50:40.344Z,58.60
2022-11-26T05:53:09.058Z,76.30
2022-11-26T05:55:37.806Z,88.30
2022-11-26T05:58:09.660Z,88.40
2022-11-26T06:00:38.435Z,68.50
2022-11-26T06:03:07.261Z,60.00
2022-11-26T06:05:36.171Z,64.60
2022-11-26T06:08:05.015Z,58.80
2022-11-26T06:10:33.824Z,60.00
2022-11-26T06:13:02.608Z,60.90
2022-11-26T06:15:31.371Z,60.80
2022-11-26T06:18:00.137Z,63.70
2022-11-26T06:20:28.848Z,65.00
2022-11-26T06:22:57.536Z,66.90
2022-11-26T06:25:26.283Z,75.60
2022-11-26T06:27:55.466Z,68.00
2022-11-26T06:30:24.378Z,67.30
2022-11-26T06:32:53.118Z,63.30
2022-11-26T06:35:21.879Z,68.00
2022-11-26T06:37:50.637Z,62.00
2022-11-26T06:40:20.334Z,59.60
2022-11-26T06:42:50.070Z,63.20
2022-11-26T06:45:19.086Z,63.10
2022-11-26T06:47:48.474Z,64.90
2022-11-26T06:50:18.267Z,62.80
2022-11-26T06:52:50.174Z,73.10
2022-11-26T06:55:21.899Z,85.40
2022-11-26T06:57:51.564Z,61.60
2022-11-26T07:00:20.430Z,58.60
2022-11-26T07:02:49.503Z,54.20
2022-11-26T07:05:18.456Z,56.20
2022-11-26T07:07:47.415Z,52.40
2022-11-26T07:10:16.291Z,56.00
2022-11-26T07:12:45.071Z,51.30
2022-11-26T07:15:13.868Z,57.50
2022-11-26T07:17:42.594Z,57.90
2022-11-26T07:20:11.605Z,61.50
2022-11-26T07:22:40.326Z,64.10
2022-11-26T07:25:12.601Z,64.30
2022-11-26T07:27:41.785Z,46.10
2022-11-26T07:30:10.882Z,49.90
2022-11-26T07:32:39.671Z,49.00
2022-11-26T07:35:08.478Z,48.20
2022-11-26T07:37:37.502Z,49.60
2022-11-26T07:40:06.985Z,42.80
2022-11-26T07:42:35.700Z,45.30
2022-11-26T07:45:04.661Z,50.00
2022-11-26T07:47:33.831Z,66.40
2022-11-26T07:50:03.526Z,63.70
2022-11-26T07:52:32.246Z,49.10
2022-11-26T07:55:00.965Z,44.30
2022-11-26T07:57:29.723Z,43.70
2022-11-26T07:59:58.655Z,39.90
2022-11-26T08:02:27.594Z,46.40
2022-11-26T08:04:56.790Z,43.10
2022-11-26T08:07:29.275Z,48.20
2022-11-26T08:09:58.444Z,53.50
2022-11-26T08:12:27.541Z,47.00
2022-11-26T08:14:57.146Z,49.50
2022-11-26T08:17:25.895Z,46.60
2022-11-26T08:19:55.098Z,36.60
2022-11-26T08:22:23.901Z,41.60
2022-11-26T08:24:52.913Z,42.90
2022-11-26T08:27:21.733Z,42.60
2022-11-26T08:29:50.579Z,43.60
2022-11-26T08:32:19.427Z,42.90
2022-11-26T08:34:48.113Z,43.20
2022-11-26T08:37:16.884Z,49.80
2022-11-26T08:39:45.776Z,53.30
2022-11-26T08:42:14.669Z,48.50
2022-11-26T08:44:43.474Z,37.90
2022-11-26T08:47:12.185Z,44.30
2022-11-26T08:49:41.033Z,42.20
2022-11-26T08:52:09.751Z,43.70
2022-11-26T08:54:43.464Z,47.70
2022-11-26T08:57:13.649Z,48.00
2022-11-26T08:59:42.353Z,53.00
2022-11-26T09:02:16.022Z,48.40
2022-11-26T09:04:47.406Z,60.20
2022-11-26T09:07:16.195Z,55.00
2022-11-26T09:09:44.988Z,48.70
2022-11-26T09:12:13.839Z,55.20
2022-11-26T09:14:43.307Z,56.20
2022-11-26T09:17:12.357Z,48.40
2022-11-26T09:19:41.222Z,48.90
2022-11-26T09:22:10.015Z,51.10
2022-11-26T09:24:38.961Z,54.80
2022-11-26T09:27:09.784Z,59.70
2022-11-26T09:29:38.529Z,53.40
2022-11-26T09:32:24.446Z,50.60
2022-11-26T09:34:54.887Z,49.20
2022-11-26T09:37:23.654Z,48.30
2022-11-26T09:39:53.305Z,54.50
2022-11-26T09:42:38.571Z,45.20
2022-11-26T09:45:16.601Z,55.40
2022-11-26T09:47:47.999Z,78.50
2022-11-26T09:50:20.813Z,106.80
2022-11-26T09:52:49.552Z,78.20
2022-11-26T09:55:18.264Z,76.50
2022-11-26T09:57:51.525Z,49.90
2022-11-26T10:00:25.135Z,57.60
2022-11-26T10:02:54.816Z,96.90
2022-11-26T10:05:40.795Z,105.60
2022-11-26T10:08:12.262Z,87.50
2022-11-26T10:10:52.153Z,109.80
2022-11-26T10:13:26.540Z,101.00
2022-11-26T10:15:58.137Z,95.10
2022-11-26T10:18:42.188Z,89.20
2022-11-26T10:21:57.173Z,100.40
2022-11-26T10:24:29.745Z,71.10
2022-11-26T10:27:01.000Z,63.20
2022-11-26T10:29:41.529Z,62.30
2022-11-26T10:32:20.401Z,61.50
2022-11-26T10:34:52.936Z,137.10
2022-11-26T10:37:23.105Z,93.20
2022-11-26T10:40:00.871Z,55.20
2022-11-26T10:42:39.737Z,50.70
2022-11-26T10:45:17.058Z,51.20
2022-11-26T10:47:45.827Z,38.50
2022-11-26T10:50:46.660Z,39.60
2022-11-26T10:53:20.340Z,48.40
2022-11-26T11:25:26.604Z,49.10
2022-11-26T11:28:01.049Z,41.40
2022-11-26T11:30:32.421Z,50.50
2022-11-26T11:33:20.684Z,56.10
2022-11-26T11:36:08.421Z,59.30
2022-11-26T11:38:48.245Z,47.60
2022-11-26T11:41:35.684Z,51.50
2022-11-26T11:44:13.674Z,47.60
2022-11-26T11:46:42.367Z,45.40
2022-11-26T11:49:14.290Z,46.00
2022-11-26T11:52:00.754Z,44.90
2022-11-26T11:54:56.922Z,42.50
2022-11-26T11:57:28.649Z,46.20
2022-11-26T12:00:12.737Z,37.70
2022-11-26T12:03:01.127Z,45.50
2022-11-26T12:05:40.730Z,42.50
2022-11-26T12:08:18.989Z,42.90
2022-11-26T12:10:50.633Z,49.20
2022-11-26T12:13:20.558Z,45.20
2022-11-26T12:15:49.273Z,38.80
2022-11-26T12:18:24.192Z,39.90
2022-11-26T12:20:59.221Z,45.40
2022-11-26T12:23:48.333Z,48.50
2022-11-26T12:26:20.818Z,38.70
2022-11-26T12:28:52.382Z,34.20
2022-11-26T12:31:29.102Z,42.00
2022-11-26T12:34:08.207Z,36.70
2022-11-26T12:36:47.050Z,42.20
2022-11-26T12:39:19.705Z,49.80
2022-11-26T12:42:00.467Z,40.40
2022-11-26T12:44:33.695Z,42.00
2022-11-26T12:47:02.424Z,32.90
2022-11-26T12:49:37.842Z,31.10
2022-11-26T12:52:09.598Z,37.00
2022-11-26T12:54:42.603Z,31.50
2022-11-26T12:57:14.324Z,38.40
2022-11-26T12:59:51.721Z,26.50
2022-11-26T13:02:25.077Z,30.80
2022-11-26T13:04:54.718Z,32.10
2022-11-26T13:07:23.769Z,32.70
2022-11-26T13:09:58.005Z,28.20
2022-11-26T13:12:32.948Z,29.40
2022-11-26T13:15:20.714Z,26.70
2022-11-26T13:17:50.448Z,32.70
2022-11-26T13:20:38.840Z,30.90
2022-11-26T13:23:07.751Z,23.50
2022-11-26T13:25:55.255Z,26.60
2022-11-26T13:28:27.108Z,29.50
2022-11-26T13:30:59.043Z,27.60
2022-11-26T13:33:38.265Z,35.40
2022-11-26T13:36:14.575Z,27.50
2022-11-26T13:39:03.334Z,31.20
2022-11-26T13:41:46.574Z,30.10
2022-11-26T13:44:27.403Z,29.80
2022-11-26T13:47:05.360Z,26.20
2022-11-26T13:49:40.394Z,26.40
2022-11-26T13:52:19.861Z,29.00
2022-11-26T13:54:56.427Z,27.20
2022-11-26T13:57:26.814Z,33.30
2022-11-26T13:59:56.232Z,27.50
2022-11-26T14:02:34.099Z,27.90
2022-11-26T14:05:06.511Z,34.40
2022-11-26T14:07:35.972Z,31.80
2022-11-26T14:10:06.214Z,37.30
2022-11-26T14:12:53.650Z,34.40
2022-11-26T14:15:40.868Z,35.70
2022-11-26T14:18:10.516Z,32.30
2022-11-26T14:20:57.589Z,36.20
2022-11-26T14:23:44.768Z,28.70
2022-11-26T14:26:16.869Z,34.60
2022-11-26T14:28:45.635Z,31.90
2022-11-26T14:31:24.554Z,31.10
2022-11-26T14:33:56.436Z,29.30
2022-11-26T14:36:26.199Z,29.60
2022-11-26T14:39:11.559Z,24.70
2022-11-26T14:41:43.343Z,33.00
2022-11-26T14:44:13.146Z,34.90
2022-11-26T14:46:43.328Z,33.70
2022-11-26T14:49:24.113Z,35.70
2022-11-26T14:51:53.826Z,35.30
2022-11-26T14:54:30.857Z,30.60
2022-11-26T14:57:04.367Z,28.90
2022-11-26T14:59:33.273Z,33.90
2022-11-26T15:02:02.096Z,31.90
2022-11-26T15:04:32.020Z,36.60
2022-11-26T15:07:00.766Z,35.40
2022-11-26T15:09:29.455Z,37.70
2022-11-26T15:12:04.464Z,35.20
2022-11-26T15:14:54.790Z,41.80
2022-11-26T15:17:24.479Z,44.00
2022-11-26T15:19:54.068Z,40.90
2022-11-26T15:22:48.927Z,34.50
2022-11-26T15:25:19.275Z,34.10
2022-11-26T15:27:55.935Z,37.20
2022-11-26T15:30:30.899Z,33.50
2022-11-26T15:33:01.338Z,33.30
2022-11-26T15:35:31.321Z,37.50
2022-11-26T15:38:00.372Z,33.60
2022-11-26T15:40:49.916Z,34.70
2022-11-26T15:43:18.639Z,39.50
2022-11-26T15:45:48.132Z,36.20
2022-11-26T15:48:27.905Z,37.30
2022-11-26T15:51:01.312Z,38.40
2022-11-26T15:53:34.248Z,33.40
2022-11-26T15:58:36.245Z,36.90
2022-11-26T16:01:07.442Z,34.90
2022-11-26T16:03:36.247Z,31.80
2022-11-26T16:06:08.494Z,30.90
2022-11-26T16:08:39.317Z,29.70
2022-11-26T16:11:09.270Z,31.10
2022-11-26T16:13:37.982Z,32.50
2022-11-26T16:16:09.226Z,31.90
2022-11-26T16:18:38.267Z,34.90
2022-11-26T16:21:24.515Z,27.90
2022-11-26T16:23:59.020Z,29.70
2022-11-26T16:26:28.513Z,33.20
2022-11-26T16:28:57.803Z,49.80
2022-11-26T16:31:26.686Z,47.20
2022-11-26T16:33:55.605Z,42.30
2022-11-26T16:36:26.029Z,45.20
2022-11-26T16:38:54.993Z,47.00
2022-11-26T16:41:23.776Z,37.50
2022-11-26T16:43:52.685Z,35.20
2022-11-26T16:46:25.946Z,41.70
2022-11-26T16:48:55.064Z,41.30
2022-11-26T16:51:24.271Z,36.30
2022-11-26T16:53:53.049Z,36.10
2022-11-26T16:56:28.221Z,32.40
2022-11-26T16:58:58.525Z,36.30
2022-11-26T17:01:27.372Z,38.20
2022-11-26T17:03:56.320Z,34.80
2022-11-26T17:06:27.994Z,33.90
2022-11-26T17:08:57.361Z,31.60
2022-11-26T17:11:26.126Z,34.90
2022-11-26T17:13:54.834Z,37.30
2022-11-26T17:16:24.002Z,35.90
2022-11-26T17:18:53.079Z,35.40
2022-11-26T17:21:21.965Z,31.40
2022-11-26T17:23:50.812Z,32.00
2022-11-26T17:26:20.969Z,36.50
2022-11-26T17:28:50.161Z,32.20
2022-11-26T17:31:19.114Z,39.20
2022-11-26T17:33:48.232Z,32.70
2022-11-26T17:36:20.024Z,31.90
2022-11-26T17:38:49.446Z,35.60
2022-11-26T17:41:18.204Z,34.30
2022-11-26T17:43:47.002Z,36.60
2022-11-26T17:46:17.208Z,34.00
2022-11-26T17:48:46.308Z,32.50
2022-11-26T17:51:15.156Z,27.20
2022-11-26T17:53:44.379Z,28.30
2022-11-26T17:56:20.741Z,30.40
2022-11-26T17:58:50.085Z,35.70
2022-11-26T18:01:19.226Z,24.60
2022-11-26T18:03:48.232Z,28.30
2022-11-26T18:06:18.187Z,34.80
2022-11-26T18:08:47.101Z,34.60
2022-11-26T18:11:16.269Z,30.00
2022-11-26T18:13:45.543Z,31.90
2022-11-26T18:16:14.495Z,31.10
2022-11-26T18:18:43.294Z,28.40
2022-11-26T18:21:12.166Z,24.90
2022-11-26T18:23:42.721Z,27.40
2022-11-26T18:26:16.931Z,28.30
2022-11-26T18:28:45.852Z,33.40
2022-11-26T18:31:14.755Z,26.10
2022-11-26T18:33:43.554Z,31.30
2022-11-26T18:36:12.260Z,30.20
2022-11-26T18:38:41.006Z,28.30
2022-11-26T18:41:09.752Z,28.80
2022-11-26T18:43:39.150Z,31.40
2022-11-26T18:46:11.531Z,26.30
2022-11-26T18:48:40.265Z,27.70
2022-11-26T18:51:09.104Z,27.50
2022-11-26T18:53:38.130Z,31.10
2022-11-26T18:56:08.479Z,26.60
2022-11-26T18:58:37.186Z,26.40
2022-11-26T19:01:13.977Z,23.40
2022-11-26T19:03:44.221Z,22.70
2022-11-26T19:06:17.796Z,23.20
2022-11-26T19:08:46.955Z,26.30
2022-11-26T19:11:18.483Z,28.20
2022-11-26T19:13:48.024Z,24.50
2022-11-26T19:16:17.785Z,23.40
2022-11-26T19:18:47.024Z,24.30
2022-11-26T19:21:20.234Z,28.90
2022-11-26T19:23:49.299Z,27.30
2022-11-26T19:26:18.283Z,29.90
2022-11-26T19:28:47.549Z,25.10
2022-11-26T19:31:26.729Z,27.30
2022-11-26T19:33:57.925Z,31.20
2022-11-26T19:36:27.748Z,22.70
2022-11-26T19:38:57.402Z,21.30
2022-11-26T19:41:26.611Z,23.60
2022-11-26T19:43:59.143Z,23.30
2022-11-26T19:46:28.088Z,24.10
2022-11-26T19:48:57.636Z,30.10
2022-11-26T19:51:27.745Z,29.70
2022-11-26T19:53:56.571Z,27.30
2022-11-26T19:56:29.552Z,26.50
2022-11-26T20:01:30.538Z,24.10
2022-11-26T20:04:00.242Z,27.10
2022-11-26T20:06:30.437Z,26.70
2022-11-26T20:08:59.410Z,27.00
2022-11-26T20:11:28.700Z,34.00
2022-11-26T20:13:57.734Z,28.40
2022-11-26T20:16:28.315Z,31.60
2022-11-26T20:18:57.975Z,30.80
2022-11-26T20:21:28.097Z,26.60
2022-11-26T20:23:57.985Z,27.70
2022-11-26T20:26:31.795Z,36.10
2022-11-26T20:29:05.675Z,27.90
2022-11-26T20:31:34.931Z,30.90
2022-11-26T20:34:04.346Z,29.60
2022-11-26T20:36:33.165Z,32.70
2022-11-26T20:39:02.174Z,31.50
2022-11-26T20:41:31.160Z,29.90
2022-11-26T20:43:59.980Z,27.10
2022-11-26T20:46:29.085Z,30.00
2022-11-26T20:48:57.919Z,31.30
2022-11-26T20:51:26.698Z,33.70
2022-11-26T20:53:57.884Z,33.30
2022-11-26T20:56:30.496Z,30.90
2022-11-26T20:59:01.252Z,31.50
2022-11-26T21:01:31.499Z,34.10
2022-11-26T21:04:01.179Z,33.90
2022-11-26T21:06:30.761Z,29.10
2022-11-26T21:09:01.230Z,39.80
2022-11-26T21:11:30.301Z,38.70
2022-11-26T21:14:00.056Z,37.70
2022-11-26T21:16:29.296Z,35.00
2022-11-26T21:18:58.509Z,33.30
2022-11-26T21:21:28.184Z,34.10
2022-11-26T21:23:57.417Z,37.50
2022-11-26T21:26:26.740Z,35.40
2022-11-26T21:28:57.112Z,37.60
2022-11-26T21:31:27.488Z,43.70
2022-11-26T21:34:00.970Z,37.00
2022-11-26T21:36:30.556Z,40.00
2022-11-26T21:38:59.460Z,32.90
2022-11-26T21:41:28.272Z,39.90
2022-11-26T21:43:59.403Z,38.10
2022-11-26T21:46:28.148Z,43.50
2022-11-26T21:48:57.410Z,37.40
2022-11-26T21:51:27.681Z,44.40
2022-11-26T21:53:57.214Z,43.80
2022-11-26T21:56:27.519Z,42.40
2022-11-26T21:58:57.414Z,41.90
2022-11-26T22:01:28.773Z,51.00
2022-11-26T22:03:59.433Z,42.20
2022-11-26T22:06:28.329Z,44.90
2022-11-26T22:08:57.211Z,48.50
2022-11-26T22:11:26.919Z,44.00
2022-11-26T22:13:55.881Z,49.10
2022-11-26T22:16:25.471Z,49.20
2022-11-26T22:18:56.048Z,41.90
2022-11-26T22:21:29.385Z,43.10
2022-11-26T22:23:58.846Z,44.90
2022-11-26T22:26:28.285Z,49.40
2022-11-26T22:28:57.291Z,45.00
2022-11-26T22:31:33.416Z,52.10
2022-11-26T22:34:03.952Z,46.40
2022-11-26T22:36:32.948Z,42.40
2022-11-26T22:39:02.812Z,42.70
2022-11-26T22:41:32.089Z,44.80
2022-11-26T22:44:01.133Z,43.70
2022-11-26T22:46:30.077Z,44.50
2022-11-26T22:48:59.711Z,40.00
2022-11-26T22:51:29.950Z,40.80
2022-11-26T22:53:59.937Z,38.70
2022-11-26T22:56:28.913Z,42.50
2022-11-26T22:58:58.031Z,39.80
2022-11-26T23:01:28.497Z,43.10
2022-11-26T23:03:57.901Z,36.40
2022-11-26T23:06:28.420Z,34.70
2022-11-26T23:08:57.907Z,36.30
2022-11-26T23:11:28.981Z,40.20
2022-11-26T23:13:58.017Z,37.70
2022-11-26T23:16:27.181Z,37.90
2022-11-26T23:18:57.062Z,34.80
2022-11-26T23:21:30.421Z,39.70
2022-11-26T23:23:59.183Z,42.30
2022-11-26T23:26:29.208Z,47.00
2022-11-26T23:28:58.858Z,37.50
2022-11-26T23:31:29.525Z,38.80
2022-11-26T23:33:58.321Z,34.10
2022-11-26T23:36:27.720Z,39.80
2022-11-26T23:38:58.544Z,34.30
2022-11-26T23:41:27.449Z,37.90
2022-11-26T23:43:56.323Z,36.30
2022-11-26T23:46:26.924Z,37.10
2022-11-26T23:48:55.763Z,36.60
2022-11-26T23:51:26.098Z,33.10
2022-11-26T23:53:54.889Z,38.00
2022-11-26T23:56:27.908Z,35.90
2022-11-26T23:58:57.824Z,35.30
